createdAt,value
2022-11-29T00:00:52.135Z,69.52
2022-11-29T00:03:20.445Z,69.46
2022-11-29T00:05:47.940Z,69.96
2022-11-29T00:08:15.529Z,69.57
2022-11-29T00:10:41.975Z,70.09
2022-11-29T00:13:08.389Z,69.65
2022-11-29T00:15:34.784Z,69.31
2022-11-29T00:18:01.200Z,68.71
2022-11-29T00:20:28.468Z,68.63
2022-11-29T00:22:56.065Z,69.32
2022-11-29T00:25:23.658Z,69.40
2022-11-29T00:27:50.235Z,69.46
2022-11-29T00:30:18.841Z,69.67
2022-11-29T00:32:45.416Z,68.89
2022-11-29T00:35:13.025Z,69.65
2022-11-29T00:37:39.445Z,67.81
2022-11-29T00:40:06.196Z,68.07
2022-11-29T00:42:33.792Z,67.96
2022-11-29T00:45:00.379Z,68.92
2022-11-29T00:47:28.028Z,69.16
2022-11-29T00:49:54.864Z,69.33
2022-11-29T00:52:22.247Z,69.92
2022-11-29T00:54:48.815Z,69.22
2022-11-29T00:57:15.259Z,70.19
2022-11-29T00:59:41.680Z,69.90
2022-11-29T01:02:08.152Z,70.09
2022-11-29T01:04:34.580Z,70.03
2022-11-29T01:07:01.751Z,69.33
2022-11-29T01:09:28.315Z,70.48
2022-11-29T01:11:54.912Z,70.35
2022-11-29T01:14:21.367Z,70.01
2022-11-29T01:16:48.158Z,70.11
2022-11-29T01:19:15.675Z,70.30
2022-11-29T01:21:42.264Z,69.98
2022-11-29T01:24:08.851Z,69.85
2022-11-29T01:26:35.442Z,70.46
2022-11-29T01:29:01.856Z,70.13
2022-11-29T01:31:28.639Z,70.55
2022-11-29T01:33:55.238Z,71.18
2022-11-29T01:36:21.822Z,70.81
2022-11-29T01:38:48.396Z,70.90
2022-11-29T01:41:15.003Z,70.81
2022-11-29T01:43:41.597Z,71.08
2022-11-29T01:46:08.203Z,71.33
2022-11-29T01:48:35.776Z,71.39
2022-11-29T01:51:03.368Z,71.58
2022-11-29T01:53:30.980Z,71.39
2022-11-29T01:55:57.583Z,71.82
2022-11-29T01:58:24.131Z,71.14
2022-11-29T02:00:50.730Z,71.11
2022-11-29T02:03:18.322Z,71.11
2022-11-29T02:05:46.918Z,71.58
2022-11-29T02:08:13.513Z,71.51
2022-11-29T02:10:41.107Z,71.83
2022-11-29T02:13:07.554Z,71.50
2022-11-29T02:15:34.362Z,71.96
2022-11-29T02:18:01.886Z,71.57
2022-11-29T02:20:28.476Z,71.28
2022-11-29T02:22:55.061Z,71.27
2022-11-29T02:25:21.519Z,71.85
2022-11-29T02:27:47.940Z,71.93
2022-11-29T02:30:14.354Z,71.60
2022-11-29T02:32:40.782Z,70.97
2022-11-29T02:35:08.039Z,71.53
2022-11-29T02:37:34.655Z,71.26
2022-11-29T02:40:01.207Z,71.47
2022-11-29T02:42:27.827Z,71.37
2022-11-29T02:44:54.399Z,71.43
2022-11-29T02:47:20.997Z,70.86
2022-11-29T02:49:48.621Z,71.20
2022-11-29T02:52:15.071Z,70.74
2022-11-29T02:54:41.994Z,71.00
2022-11-29T02:57:09.370Z,71.25
2022-11-29T02:59:35.977Z,71.54
2022-11-29T03:02:02.555Z,71.79
2022-11-29T03:04:29.151Z,71.36
2022-11-29T03:06:55.594Z,71.41
2022-11-29T03:09:23.348Z,72.00
2022-11-29T03:11:49.920Z,71.72
2022-11-29T03:14:18.538Z,71.82
2022-11-29T03:16:45.119Z,71.77
2022-11-29T03:19:12.717Z,72.29
2022-11-29T03:21:40.305Z,72.09
2022-11-29T03:24:06.902Z,72.27
2022-11-29T03:26:33.362Z,71.60
2022-11-29T03:29:00.087Z,72.11
2022-11-29T03:31:26.730Z,71.48
2022-11-29T03:33:54.269Z,72.04
2022-11-29T03:36:20.675Z,71.59
2022-11-29T03:38:47.458Z,71.52
2022-11-29T03:41:14.038Z,71.37
2022-11-29T03:43:40.628Z,71.71
2022-11-29T03:46:08.265Z,71.93
2022-11-29T03:48:35.819Z,71.28
2022-11-29T03:51:02.404Z,71.39
2022-11-29T03:53:31.012Z,70.72
2022-11-29T03:55:57.432Z,71.45
2022-11-29T03:58:24.160Z,72.08
2022-11-29T04:00:51.782Z,71.86
2022-11-29T04:03:18.345Z,71.81
2022-11-29T04:05:44.945Z,71.43
2022-11-29T04:08:11.550Z,72.00
2022-11-29T04:10:39.132Z,71.72
2022-11-29T04:13:06.757Z,71.71
2022-11-29T04:15:33.183Z,72.06
2022-11-29T04:17:59.599Z,72.14
2022-11-29T04:20:26.124Z,72.01
2022-11-29T04:22:52.522Z,72.26
2022-11-29T04:25:18.976Z,72.43
2022-11-29T04:27:45.438Z,72.39
2022-11-29T04:30:12.900Z,72.74
2022-11-29T04:32:39.486Z,72.19
2022-11-29T04:35:06.077Z,71.87
2022-11-29T04:37:32.679Z,72.17
2022-11-29T04:39:59.261Z,71.76
2022-11-29T04:42:25.856Z,71.49
2022-11-29T04:44:52.433Z,71.79
2022-11-29T04:47:19.260Z,71.89
2022-11-29T04:49:45.672Z,71.75
2022-11-29T04:52:12.087Z,71.87
2022-11-29T04:54:38.823Z,71.57
2022-11-29T04:57:05.403Z,71.40
2022-11-29T04:59:31.998Z,71.89
2022-11-29T05:01:59.633Z,71.66
2022-11-29T05:04:27.205Z,71.85
2022-11-29T05:06:53.789Z,72.33
2022-11-29T05:09:20.388Z,72.34
2022-11-29T05:11:46.987Z,72.25
2022-11-29T05:14:13.568Z,72.18
2022-11-29T05:16:40.164Z,71.93
2022-11-29T05:19:06.765Z,72.31
2022-11-29T05:21:33.338Z,72.81
2022-11-29T05:23:59.930Z,72.78
2022-11-29T05:26:26.518Z,72.72
2022-11-29T05:28:53.122Z,72.39
2022-11-29T05:31:20.757Z,72.94
2022-11-29T05:33:48.323Z,72.41
2022-11-29T05:36:14.768Z,72.01
2022-11-29T05:38:41.499Z,72.12
2022-11-29T05:41:07.941Z,71.90
2022-11-29T05:43:34.709Z,71.93
2022-11-29T05:46:01.374Z,72.85
2022-11-29T05:48:28.878Z,72.28
2022-11-29T05:50:56.484Z,72.56
2022-11-29T05:53:24.073Z,72.30
2022-11-29T05:55:50.669Z,72.68
2022-11-29T05:58:17.274Z,72.65
2022-11-29T06:00:43.696Z,72.09
2022-11-29T06:03:10.453Z,72.76
2022-11-29T06:05:38.026Z,72.66
2022-11-29T06:08:04.445Z,73.18
2022-11-29T06:10:31.229Z,73.15
2022-11-29T06:12:57.798Z,73.04
2022-11-29T06:15:24.396Z,73.77
2022-11-29T06:17:51.975Z,73.63
2022-11-29T06:20:18.578Z,73.54
2022-11-29T06:22:45.139Z,73.40
2022-11-29T06:25:11.743Z,73.66
2022-11-29T06:27:39.327Z,73.10
2022-11-29T06:30:05.972Z,73.29
2022-11-29T06:32:32.570Z,73.62
2022-11-29T06:34:59.159Z,73.76
2022-11-29T06:37:25.750Z,73.79
2022-11-29T06:39:52.337Z,73.89
2022-11-29T06:42:18.931Z,73.19
2022-11-29T06:44:45.674Z,73.00
2022-11-29T06:47:13.119Z,73.83
2022-11-29T06:49:39.708Z,73.88
2022-11-29T06:52:06.309Z,74.33
2022-11-29T06:54:34.008Z,73.98
2022-11-29T06:57:00.439Z,74.42
2022-11-29T06:59:27.085Z,75.15
2022-11-29T07:01:54.691Z,75.06
2022-11-29T07:04:21.167Z,75.03
2022-11-29T07:06:47.599Z,75.77
2022-11-29T07:09:14.031Z,75.75
2022-11-29T07:11:40.454Z,75.47
2022-11-29T07:14:06.888Z,76.02
2022-11-29T07:16:33.464Z,76.20
2022-11-29T07:18:59.899Z,75.97
2022-11-29T07:21:27.375Z,75.28
2022-11-29T07:23:53.986Z,75.37
2022-11-29T07:26:20.600Z,75.94
2022-11-29T07:28:47.183Z,75.44
2022-11-29T07:31:13.663Z,76.30
2022-11-29T07:33:40.180Z,76.56
2022-11-29T07:36:06.612Z,76.74
2022-11-29T07:38:33.576Z,76.25
2022-11-29T07:41:00.022Z,76.59
2022-11-29T07:43:26.741Z,76.16
2022-11-29T07:45:53.351Z,76.92
2022-11-29T07:48:19.939Z,76.83
2022-11-29T07:50:46.535Z,76.30
2022-11-29T07:53:13.141Z,76.42
2022-11-29T07:55:39.783Z,75.58
2022-11-29T07:58:06.372Z,75.69
2022-11-29T08:00:33.003Z,75.57
2022-11-29T08:03:00.552Z,76.46
2022-11-29T08:05:27.160Z,75.38
2022-11-29T08:07:54.804Z,75.20
2022-11-29T08:10:21.252Z,75.75
2022-11-29T08:12:47.701Z,75.45
2022-11-29T08:15:14.150Z,75.79
2022-11-29T08:17:41.110Z,73.81
2022-11-29T08:20:07.707Z,74.97
2022-11-29T08:22:34.282Z,75.20
2022-11-29T08:25:00.920Z,75.54
2022-11-29T08:27:28.446Z,75.50
2022-11-29T08:29:55.091Z,75.22
2022-11-29T08:32:21.549Z,74.98
2022-11-29T08:34:48.167Z,73.94
2022-11-29T08:37:15.828Z,73.77
2022-11-29T08:39:42.462Z,73.99
2022-11-29T08:42:09.009Z,73.27
2022-11-29T08:44:36.633Z,73.60
2022-11-29T08:47:03.249Z,73.23
2022-11-29T08:49:30.819Z,73.00
2022-11-29T08:51:57.310Z,73.05
2022-11-29T08:54:23.765Z,73.00
2022-11-29T08:57:23.669Z,73.01
2022-11-29T08:59:37.262Z,73.39
2022-11-29T09:02:03.887Z,73.05
2022-11-29T09:04:30.380Z,73.12
2022-11-29T09:06:57.095Z,73.29
2022-11-29T09:09:23.686Z,73.21
2022-11-29T09:11:50.265Z,73.29
2022-11-29T09:14:16.921Z,72.97
2022-11-29T09:16:43.549Z,73.75
2022-11-29T09:19:11.150Z,72.95
2022-11-29T09:21:38.750Z,73.56
2022-11-29T09:24:05.182Z,73.09
2022-11-29T09:26:31.740Z,73.21
2022-11-29T09:28:59.585Z,73.33
2022-11-29T09:31:27.245Z,73.43
2022-11-29T09:33:54.757Z,73.28
2022-11-29T09:36:28.115Z,73.32
2022-11-29T09:38:55.990Z,72.72
2022-11-29T09:41:23.568Z,72.47
2022-11-29T09:43:50.166Z,72.54
2022-11-29T09:46:16.810Z,72.13
2022-11-29T09:48:43.395Z,72.20
2022-11-29T09:51:10.967Z,71.77
2022-11-29T09:53:37.567Z,72.12
2022-11-29T09:56:05.170Z,72.27
2022-11-29T09:58:34.084Z,71.82
2022-11-29T10:01:01.462Z,71.56
2022-11-29T10:03:28.968Z,71.29
2022-11-29T10:05:55.563Z,72.07
2022-11-29T10:08:22.422Z,72.94
2022-11-29T10:10:49.765Z,72.44
2022-11-29T10:13:16.316Z,72.32
2022-11-29T10:15:42.802Z,72.45
2022-11-29T10:18:09.211Z,72.14
2022-11-29T10:20:40.482Z,72.00
2022-11-29T10:23:09.030Z,71.47
2022-11-29T10:25:36.460Z,71.83
2022-11-29T10:28:04.057Z,72.06
2022-11-29T10:30:30.730Z,71.69
2022-11-29T10:32:58.264Z,71.94
2022-11-29T10:35:25.856Z,72.00
2022-11-29T10:38:22.751Z,71.99
2022-11-29T10:40:38.890Z,71.31
2022-11-29T10:43:05.768Z,71.25
2022-11-29T10:45:32.364Z,71.11
2022-11-29T10:47:58.976Z,71.50
2022-11-29T10:50:26.547Z,71.69
2022-11-29T10:52:57.166Z,72.01
2022-11-29T10:55:26.748Z,72.68
2022-11-29T10:57:54.366Z,72.80
2022-11-29T11:00:21.983Z,73.12
2022-11-29T11:02:49.058Z,72.89
2022-11-29T11:05:15.593Z,73.13
2022-11-29T11:07:42.097Z,73.55
2022-11-29T11:10:08.562Z,73.42
2022-11-29T11:12:35.024Z,73.88
2022-11-29T11:15:01.463Z,73.76
2022-11-29T11:17:27.926Z,74.19
2022-11-29T11:19:54.753Z,74.34
2022-11-29T11:22:22.327Z,74.13
2022-11-29T11:24:48.925Z,73.98
2022-11-29T11:27:15.516Z,74.32
2022-11-29T11:29:42.110Z,73.67
2022-11-29T11:32:09.720Z,74.26
2022-11-29T11:34:36.313Z,74.04
2022-11-29T11:37:02.897Z,74.49
2022-11-29T11:39:29.489Z,73.95
2022-11-29T11:41:57.084Z,73.91
2022-11-29T11:44:46.524Z,73.89
2022-11-29T11:47:10.396Z,73.57
2022-11-29T11:49:37.483Z,73.73
2022-11-29T11:52:04.616Z,73.72
2022-11-29T11:54:32.210Z,74.25
2022-11-29T11:57:00.804Z,74.16
2022-11-29T11:59:29.485Z,74.30
2022-11-29T12:02:01.998Z,74.50
2022-11-29T12:04:30.721Z,74.56
2022-11-29T12:06:58.300Z,74.54
2022-11-29T12:09:26.955Z,73.83
2022-11-29T12:11:55.542Z,73.96
2022-11-29T12:14:25.023Z,73.96
2022-11-29T12:16:53.681Z,74.15
2022-11-29T12:19:22.303Z,73.99
2022-11-29T12:21:51.325Z,73.49
2022-11-29T12:24:19.489Z,73.76
2022-11-29T12:26:57.045Z,73.43
2022-11-29T12:29:28.775Z,73.13
2022-11-29T12:31:59.808Z,72.89
2022-11-29T12:34:31.359Z,73.39
2022-11-29T12:36:58.556Z,73.71
2022-11-29T12:39:27.778Z,74.04
2022-11-29T12:42:04.429Z,73.45
2022-11-29T12:44:42.817Z,73.31
2022-11-29T12:47:35.098Z,72.39
2022-11-29T12:49:58.730Z,72.82
2022-11-29T12:52:27.334Z,72.69
2022-11-29T12:54:56.531Z,72.77
2022-11-29T12:57:25.494Z,72.33
2022-11-29T13:00:00.555Z,72.24
2022-11-29T13:02:27.949Z,72.71
2022-11-29T13:05:00.038Z,72.26
2022-11-29T13:07:29.011Z,72.07
2022-11-29T13:10:11.403Z,72.36
2022-11-29T13:12:41.294Z,72.32
2022-11-29T13:15:08.905Z,71.54
2022-11-29T13:17:36.434Z,71.79
2022-11-29T13:20:11.165Z,71.52
2022-11-29T13:22:47.192Z,71.98
2022-11-29T13:25:31.435Z,71.80
2022-11-29T13:27:58.958Z,71.90
2022-11-29T13:30:30.183Z,71.82
2022-11-29T13:33:08.205Z,70.90
2022-11-29T13:35:45.370Z,71.52
2022-11-29T13:43:59.890Z,70.79
2022-11-29T13:46:37.265Z,70.21
2022-11-29T13:49:10.460Z,70.76
2022-11-29T13:57:03.087Z,70.16
2022-11-29T13:59:32.312Z,70.82
2022-11-29T14:02:03.250Z,70.44
2022-11-29T14:07:53.003Z,70.02
2022-11-29T14:10:09.290Z,70.40
2022-11-29T14:13:00.773Z,69.79
2022-11-29T14:15:35.472Z,69.82
2022-11-29T14:18:04.224Z,70.46
2022-11-29T14:20:41.935Z,70.48
2022-11-29T14:23:23.581Z,70.37
2022-11-29T14:25:52.264Z,69.36
2022-11-29T14:28:19.569Z,69.44
2022-11-29T14:30:46.174Z,69.18
2022-11-29T14:33:12.637Z,68.69
2022-11-29T14:35:39.383Z,69.33
2022-11-29T14:38:06.994Z,69.33
2022-11-29T14:40:33.435Z,69.38
2022-11-29T14:43:00.170Z,68.25
2022-11-29T14:45:26.778Z,67.76
2022-11-29T14:47:53.385Z,67.53
2022-11-29T14:50:19.942Z,68.61
2022-11-29T14:52:46.353Z,67.78
2022-11-29T14:55:12.797Z,68.16
2022-11-29T14:57:39.754Z,68.32
2022-11-29T15:00:06.349Z,69.13
2022-11-29T15:02:32.971Z,68.63
2022-11-29T15:05:00.563Z,69.41
2022-11-29T15:07:28.201Z,69.15
2022-11-29T15:09:57.167Z,69.26
2022-11-29T15:12:26.459Z,69.45
2022-11-29T15:14:53.909Z,68.60
2022-11-29T15:17:20.531Z,69.02
2022-11-29T15:19:47.114Z,68.80
2022-11-29T15:22:13.742Z,69.26
2022-11-29T15:24:40.663Z,69.44
2022-11-29T15:27:07.909Z,69.62
2022-11-29T15:29:35.529Z,69.88
2022-11-29T15:32:01.999Z,69.98
2022-11-29T15:34:28.452Z,69.82
2022-11-29T15:36:54.964Z,70.11
2022-11-29T15:39:21.882Z,70.29
2022-11-29T15:41:48.504Z,70.92
2022-11-29T15:44:16.054Z,71.23
2022-11-29T15:46:43.634Z,71.37
2022-11-29T15:49:10.232Z,71.48
2022-11-29T15:51:36.834Z,71.17
2022-11-29T15:54:12.641Z,71.21
2022-11-29T15:56:41.092Z,71.44
2022-11-29T15:59:08.710Z,71.53
2022-11-29T16:01:36.274Z,71.91
2022-11-29T16:04:02.883Z,72.00
2022-11-29T16:06:29.878Z,72.19
2022-11-29T16:08:56.409Z,71.89
2022-11-29T16:11:22.866Z,71.94
2022-11-29T16:13:50.223Z,72.25
2022-11-29T16:16:18.887Z,72.29
2022-11-29T16:18:45.354Z,72.47
2022-11-29T16:21:12.015Z,73.09
2022-11-29T16:23:39.620Z,72.46
2022-11-29T16:26:06.481Z,73.30
2022-11-29T16:28:32.953Z,73.03
2022-11-29T16:30:59.470Z,72.35
2022-11-29T16:33:25.967Z,72.69
2022-11-29T16:35:52.563Z,73.07
2022-11-29T16:38:19.188Z,72.98
2022-11-29T16:40:46.774Z,72.33
2022-11-29T16:43:13.350Z,72.90
2022-11-29T16:45:39.987Z,73.02
2022-11-29T16:48:06.567Z,72.36
2022-11-29T16:50:33.025Z,72.37
2022-11-29T16:52:59.496Z,72.47
2022-11-29T16:55:25.991Z,72.58
2022-11-29T16:57:52.497Z,72.87
2022-11-29T17:00:18.943Z,72.61
2022-11-29T17:02:45.410Z,72.96
2022-11-29T17:05:11.854Z,73.47
2022-11-29T17:07:38.311Z,73.44
2022-11-29T17:10:04.897Z,73.09
2022-11-29T17:12:33.508Z,72.84
2022-11-29T17:15:00.180Z,72.45
2022-11-29T17:17:26.659Z,72.36
2022-11-29T17:19:54.356Z,71.87
2022-11-29T17:22:21.922Z,72.75
2022-11-29T17:24:48.793Z,72.37
2022-11-29T17:27:16.143Z,72.77
2022-11-29T17:29:42.745Z,72.97
2022-11-29T17:32:09.433Z,73.15
2022-11-29T17:34:36.934Z,72.64
2022-11-29T17:37:03.524Z,72.88
2022-11-29T17:39:30.096Z,72.13
2022-11-29T17:41:56.699Z,72.49
2022-11-29T17:44:23.281Z,72.50
2022-11-29T17:46:49.874Z,72.51
2022-11-29T17:49:17.483Z,72.00
2022-11-29T17:51:53.148Z,71.66
2022-11-29T17:54:19.996Z,71.16
2022-11-29T17:56:46.424Z,71.69
2022-11-29T17:59:13.932Z,71.48
2022-11-29T18:01:43.021Z,71.74
2022-11-29T18:04:10.308Z,71.88
2022-11-29T18:06:36.950Z,72.26
2022-11-29T18:09:03.549Z,72.52
2022-11-29T18:11:31.190Z,71.86
2022-11-29T18:13:57.671Z,71.84
2022-11-29T18:16:24.173Z,71.52
2022-11-29T18:18:50.687Z,72.25
2022-11-29T18:21:17.100Z,71.90
2022-11-29T18:23:43.544Z,72.52
2022-11-29T18:26:10.792Z,72.66
2022-11-29T18:28:37.380Z,72.58
2022-11-29T18:31:04.092Z,73.02
2022-11-29T18:33:31.582Z,72.80
2022-11-29T18:35:59.171Z,72.98
2022-11-29T18:38:26.813Z,73.17
2022-11-29T18:40:54.401Z,72.57
2022-11-29T18:43:20.997Z,72.96
2022-11-29T18:45:47.659Z,72.52
2022-11-29T18:48:15.219Z,72.69
2022-11-29T18:50:41.676Z,72.02
2022-11-29T18:53:09.450Z,71.40
2022-11-29T18:55:36.253Z,71.28
2022-11-29T18:58:04.553Z,72.14
2022-11-29T19:00:31.191Z,72.35
2022-11-29T19:02:58.750Z,72.22
2022-11-29T19:05:26.353Z,72.28
2022-11-29T19:07:52.986Z,72.88
2022-11-29T19:10:20.538Z,72.81
2022-11-29T19:12:47.141Z,73.17
2022-11-29T19:15:15.731Z,72.17
2022-11-29T19:17:43.495Z,71.48
2022-11-29T19:20:10.954Z,70.98
2022-11-29T19:22:37.393Z,69.93
2022-11-29T19:25:03.811Z,70.46
2022-11-29T19:27:30.286Z,71.68
2022-11-29T19:29:56.716Z,71.29
2022-11-29T19:32:23.158Z,71.40
2022-11-29T19:34:50.496Z,70.42
2022-11-29T19:37:18.090Z,71.06
2022-11-29T19:39:46.076Z,70.84
2022-11-29T19:42:13.266Z,70.88
2022-11-29T19:45:14.946Z,70.73
2022-11-29T19:47:26.549Z,70.68
2022-11-29T19:49:55.809Z,71.01
2022-11-29T19:52:24.349Z,71.17
2022-11-29T19:54:51.327Z,70.63
2022-11-29T19:57:17.931Z,70.71
2022-11-29T19:59:45.724Z,70.64
2022-11-29T20:02:14.220Z,71.04
2022-11-29T20:04:41.726Z,71.25
2022-11-29T20:07:09.311Z,70.97
2022-11-29T20:09:35.907Z,71.27
2022-11-29T20:12:03.485Z,71.40
2022-11-29T20:14:30.086Z,71.16
2022-11-29T20:16:56.678Z,71.51
2022-11-29T20:19:24.277Z,71.80
2022-11-29T20:21:50.870Z,71.71
2022-11-29T20:24:18.465Z,72.00
2022-11-29T20:26:45.349Z,71.71
2022-11-29T20:29:12.663Z,72.00
2022-11-29T20:31:44.339Z,71.83
2022-11-29T20:34:14.845Z,71.98
2022-11-29T20:36:41.421Z,72.61
2022-11-29T20:39:09.027Z,72.57
2022-11-29T20:41:35.627Z,73.00
2022-11-29T20:44:03.207Z,72.73
2022-11-29T20:46:29.871Z,72.93
2022-11-29T20:49:01.677Z,72.70
2022-11-29T20:51:32.030Z,73.18
2022-11-29T20:53:58.634Z,73.47
2022-11-29T20:56:26.220Z,73.29
2022-11-29T20:58:52.804Z,73.84
2022-11-29T21:01:19.469Z,73.36
2022-11-29T21:03:47.048Z,73.92
2022-11-29T21:06:14.597Z,73.65
2022-11-29T21:08:42.202Z,73.87
2022-11-29T21:11:09.799Z,73.74
2022-11-29T21:13:36.397Z,73.61
2022-11-29T21:16:03.393Z,73.93
2022-11-29T21:18:29.890Z,73.62
2022-11-29T21:20:56.396Z,73.83
2022-11-29T21:23:23.775Z,73.80
2022-11-29T21:25:51.343Z,73.98
2022-11-29T21:28:18.929Z,73.85
2022-11-29T21:30:46.523Z,74.28
2022-11-29T21:33:13.119Z,73.92
2022-11-29T21:35:39.569Z,74.10
2022-11-29T21:38:06.019Z,73.62
2022-11-29T21:40:32.420Z,73.99
2022-11-29T21:42:58.848Z,74.12
2022-11-29T21:45:25.282Z,74.27
2022-11-29T21:47:51.665Z,74.45
2022-11-29T21:50:18.200Z,74.18
2022-11-29T21:52:44.644Z,74.62
2022-11-29T21:55:11.993Z,74.19
2022-11-29T21:57:38.778Z,74.71
2022-11-29T22:00:05.201Z,74.73
2022-11-29T22:02:31.684Z,74.38
2022-11-29T22:04:58.220Z,74.35
2022-11-29T22:07:24.704Z,74.55
2022-11-29T22:09:51.134Z,74.57
2022-11-29T22:12:33.663Z,74.79
2022-11-29T22:15:01.203Z,74.40
2022-11-29T22:17:27.753Z,74.64
2022-11-29T22:19:54.180Z,74.74
2022-11-29T22:22:20.604Z,74.73
2022-11-29T22:24:47.317Z,74.38
2022-11-29T22:27:13.933Z,74.71
2022-11-29T22:29:40.340Z,74.70
2022-11-29T22:32:06.731Z,74.96
2022-11-29T22:34:33.139Z,74.85
2022-11-29T22:36:59.512Z,75.01
2022-11-29T22:39:25.909Z,74.76
2022-11-29T22:41:54.733Z,75.28
2022-11-29T22:44:21.675Z,75.33
2022-11-29T22:46:48.136Z,75.34
2022-11-29T22:49:14.712Z,75.66
2022-11-29T22:51:41.261Z,75.12
2022-11-29T22:54:07.679Z,75.34
2022-11-29T22:56:34.091Z,75.21
2022-11-29T22:59:00.486Z,75.06
2022-11-29T23:01:26.883Z,75.75
2022-11-29T23:03:53.278Z,75.76
2022-11-29T23:06:19.726Z,75.98
2022-11-29T23:08:46.130Z,75.93
2022-11-29T23:11:12.941Z,75.94
2022-11-29T23:13:39.345Z,76.06
2022-11-29T23:16:05.774Z,75.57
2022-11-29T23:18:32.200Z,75.75
2022-11-29T23:20:59.315Z,75.87
2022-11-29T23:23:25.907Z,75.64
2022-11-29T23:25:52.493Z,75.65
2022-11-29T23:28:19.077Z,75.75
2022-11-29T23:30:45.680Z,75.52
2022-11-29T23:33:12.215Z,75.77
2022-11-29T23:35:38.656Z,75.66
2022-11-29T23:38:05.076Z,75.87
2022-11-29T23:40:32.029Z,75.53
2022-11-29T23:42:58.627Z,75.90
2022-11-29T23:45:25.217Z,75.64
2022-11-29T23:47:51.809Z,75.98
2022-11-29T23:50:19.410Z,75.91
2022-11-29T23:52:45.999Z,76.36
2022-11-29T23:55:12.434Z,76.11
2022-11-29T23:57:38.827Z,76.03
